createdAt,value
2022-09-26T00:02:19.148Z,99.90
2022-09-26T00:04:45.862Z,99.90
2022-09-26T00:07:12.510Z,99.90
2022-09-26T00:09:39.068Z,99.90
2022-09-26T00:12:05.689Z,99.90
2022-09-26T00:14:32.258Z,99.90
2022-09-26T00:16:59.059Z,99.90
2022-09-26T00:19:25.776Z,99.90
2022-09-26T00:21:52.331Z,99.90
2022-09-26T00:24:18.886Z,99.90
2022-09-26T00:26:45.704Z,99.90
2022-09-26T00:29:12.955Z,99.90
2022-09-26T00:31:41.144Z,99.90
2022-09-26T00:34:08.042Z,99.90
2022-09-26T00:36:38.452Z,99.90
2022-09-26T00:39:06.902Z,99.90
2022-09-26T00:41:33.474Z,99.90
2022-09-26T00:44:00.048Z,99.90
2022-09-26T00:46:41.890Z,99.90
2022-09-26T00:49:20.748Z,99.90
2022-09-26T00:51:50.831Z,99.90
2022-09-26T00:54:18.472Z,99.90
2022-09-26T00:56:46.470Z,99.90
2022-09-26T00:59:24.386Z,99.90
2022-09-26T01:01:53.257Z,99.90
2022-09-26T01:04:20.085Z,99.90
2022-09-26T01:06:46.771Z,99.90
2022-09-26T01:09:14.223Z,99.90
2022-09-26T01:11:41.910Z,99.90
2022-09-26T01:14:09.575Z,99.90
2022-09-26T01:16:37.504Z,99.90
2022-09-26T01:19:06.662Z,99.90
2022-09-26T01:21:53.314Z,99.90
2022-09-26T01:24:29.482Z,99.90
2022-09-26T01:27:05.214Z,99.90
2022-09-26T01:29:41.917Z,99.90
2022-09-26T01:32:48.024Z,99.90
2022-09-26T01:35:38.910Z,99.90
2022-09-26T01:38:05.420Z,99.90
2022-09-26T01:40:52.396Z,99.90
2022-09-26T01:43:23.624Z,99.90
2022-09-26T01:45:52.847Z,99.90
2022-09-26T01:48:23.668Z,99.90
2022-09-26T01:50:52.194Z,99.90
2022-09-26T01:53:21.451Z,99.90
2022-09-26T01:55:57.398Z,99.90
2022-09-26T01:58:27.295Z,99.90
2022-09-26T02:00:55.148Z,99.90
2022-09-26T02:03:27.420Z,99.90
2022-09-26T02:05:53.917Z,99.90
2022-09-26T02:08:20.478Z,99.90
2022-09-26T02:10:49.177Z,99.90
2022-09-26T02:13:17.841Z,99.90
2022-09-26T02:15:47.459Z,99.90
2022-09-26T02:18:20.337Z,99.90
2022-09-26T02:20:50.672Z,99.90
2022-09-26T02:23:17.386Z,99.90
2022-09-26T02:25:43.951Z,99.90
2022-09-26T02:28:10.526Z,99.90
2022-09-26T02:30:37.225Z,99.90
2022-09-26T02:33:03.838Z,99.90
2022-09-26T02:35:49.158Z,99.90
2022-09-26T02:38:17.408Z,99.90
2022-09-26T02:40:51.210Z,99.90
2022-09-26T02:43:27.459Z,99.90
2022-09-26T02:46:09.321Z,99.90
2022-09-26T02:48:35.908Z,99.90
2022-09-26T02:51:05.427Z,99.90
2022-09-26T02:53:50.888Z,99.90
2022-09-26T02:56:30.053Z,99.90
2022-09-26T02:58:59.658Z,99.90
2022-09-26T03:01:32.813Z,99.90
2022-09-26T03:04:02.481Z,99.90
2022-09-26T03:06:41.184Z,99.90
2022-09-26T03:09:08.787Z,99.90
2022-09-26T03:11:35.841Z,99.90
2022-09-26T03:14:03.350Z,99.90
2022-09-26T03:16:33.529Z,99.90
2022-09-26T03:19:23.686Z,99.90
2022-09-26T03:21:50.307Z,99.90
2022-09-26T03:24:17.376Z,99.90
2022-09-26T03:26:44.254Z,99.90
2022-09-26T03:29:10.913Z,99.90
2022-09-26T03:31:37.545Z,99.90
2022-09-26T03:34:04.188Z,99.90
2022-09-26T03:36:32.074Z,99.90
2022-09-26T03:38:58.894Z,99.90
2022-09-26T03:41:25.484Z,99.90
2022-09-26T03:43:52.433Z,99.90
2022-09-26T03:46:19.078Z,99.90
2022-09-26T03:48:45.722Z,99.90
2022-09-26T03:51:13.321Z,99.90
2022-09-26T03:53:41.343Z,99.90
2022-09-26T03:56:12.280Z,99.90
2022-09-26T03:58:39.413Z,99.90
2022-09-26T04:01:08.083Z,99.90
2022-09-26T04:03:38.778Z,99.90
2022-09-26T04:06:06.011Z,99.90
2022-09-26T04:08:32.554Z,99.90
2022-09-26T04:11:03.066Z,99.90
2022-09-26T04:13:51.873Z,99.90
2022-09-26T04:16:16.785Z,99.90
2022-09-26T04:18:43.344Z,99.90
2022-09-26T04:21:11.145Z,99.90
2022-09-26T04:23:38.836Z,99.90
2022-09-26T04:26:07.334Z,99.90
2022-09-26T04:28:35.315Z,99.90
2022-09-26T04:31:02.971Z,99.90
2022-09-26T04:33:31.081Z,99.90
2022-09-26T04:36:01.654Z,99.90
2022-09-26T04:38:34.329Z,99.90
2022-09-26T04:41:04.933Z,99.90
2022-09-26T04:43:31.834Z,99.90
2022-09-26T04:45:58.687Z,99.90
2022-09-26T04:48:25.861Z,99.90
2022-09-26T04:50:52.405Z,99.90
2022-09-26T04:53:19.332Z,99.90
2022-09-26T04:55:46.617Z,99.90
2022-09-26T04:58:13.856Z,99.90
2022-09-26T05:00:47.858Z,99.90
2022-09-26T05:03:14.582Z,99.90
2022-09-26T05:05:41.566Z,99.90
2022-09-26T05:08:08.107Z,99.90
2022-09-26T05:10:34.666Z,99.90
2022-09-26T05:13:03.345Z,99.90
2022-09-26T05:15:30.529Z,99.90
2022-09-26T05:17:57.749Z,99.90
2022-09-26T05:20:24.637Z,99.90
2022-09-26T05:22:51.187Z,99.90
2022-09-26T05:25:36.547Z,99.90
2022-09-26T05:28:03.268Z,99.90
2022-09-26T05:30:31.281Z,99.90
2022-09-26T05:32:58.129Z,99.90
2022-09-26T05:35:24.695Z,99.90
2022-09-26T05:37:58.098Z,99.90
2022-09-26T05:40:53.945Z,99.90
2022-09-26T05:43:20.541Z,99.90
2022-09-26T05:45:50.842Z,99.90
2022-09-26T05:48:17.921Z,99.90
2022-09-26T05:50:44.771Z,99.90
2022-09-26T05:53:11.487Z,99.90
2022-09-26T05:55:38.212Z,99.90
2022-09-26T05:58:06.076Z,99.90
2022-09-26T06:00:33.969Z,99.90
2022-09-26T06:03:03.925Z,99.90
2022-09-26T06:05:32.418Z,99.90
2022-09-26T06:07:59.810Z,99.90
2022-09-26T06:10:26.364Z,99.90
2022-09-26T06:12:53.052Z,99.90
2022-09-26T06:15:19.680Z,99.90
2022-09-26T06:17:48.121Z,99.90
2022-09-26T06:20:14.778Z,99.90
2022-09-26T06:22:42.129Z,99.90
2022-09-26T06:25:09.679Z,99.90
2022-09-26T06:27:38.467Z,99.90
2022-09-26T06:30:10.578Z,99.90
2022-09-26T06:32:39.144Z,99.90
2022-09-26T06:35:06.472Z,99.90
2022-09-26T06:37:33.035Z,99.90
2022-09-26T06:40:00.787Z,99.90
2022-09-26T06:42:27.541Z,99.90
2022-09-26T06:44:54.906Z,99.90
2022-09-26T06:47:22.104Z,99.90
2022-09-26T06:49:49.140Z,99.90
2022-09-26T06:52:15.714Z,99.90
2022-09-26T06:54:42.292Z,99.90
2022-09-26T06:57:14.754Z,99.90
2022-09-26T06:59:41.725Z,99.90
2022-09-26T07:02:08.769Z,99.90
2022-09-26T07:04:35.832Z,99.90
2022-09-26T07:07:02.470Z,99.90
2022-09-26T07:09:29.189Z,99.90
2022-09-26T07:12:14.025Z,99.90
2022-09-26T07:14:42.174Z,99.90
2022-09-26T07:17:10.645Z,99.90
2022-09-26T07:19:37.288Z,99.90
2022-09-26T07:22:03.876Z,99.90
2022-09-26T07:24:30.546Z,99.90
2022-09-26T07:26:57.266Z,99.90
2022-09-26T07:29:23.823Z,99.90
2022-09-26T07:31:50.596Z,99.90
2022-09-26T07:34:18.631Z,99.90
2022-09-26T07:36:45.941Z,99.90
2022-09-26T07:39:12.701Z,99.90
2022-09-26T07:41:39.364Z,99.90
2022-09-26T07:47:11.290Z,99.90
2022-09-26T07:49:56.419Z,99.90
2022-09-26T07:52:23.065Z,99.90
2022-09-26T07:54:49.742Z,99.90
2022-09-26T07:57:17.068Z,99.90
2022-09-26T07:59:43.665Z,99.90
2022-09-26T08:02:23.100Z,99.90
2022-09-26T08:04:50.235Z,99.90
2022-09-26T08:07:16.818Z,99.90
2022-09-26T08:09:43.636Z,99.90
2022-09-26T08:12:10.691Z,99.90
2022-09-26T08:14:37.541Z,99.90
2022-09-26T08:17:04.127Z,99.90
2022-09-26T08:19:30.777Z,99.90
2022-09-26T08:21:59.021Z,99.90
2022-09-26T08:24:25.580Z,99.90
2022-09-26T08:26:54.038Z,99.90
2022-09-26T08:29:22.051Z,99.90
2022-09-26T08:31:48.767Z,99.90
2022-09-26T08:34:15.493Z,99.90
2022-09-26T08:36:42.200Z,99.90
2022-09-26T08:39:10.854Z,99.90
2022-09-26T08:41:56.572Z,99.70
2022-09-26T08:44:26.277Z,96.80
2022-09-26T08:47:00.601Z,93.50
2022-09-26T08:49:39.541Z,94.20
2022-09-26T08:52:24.882Z,93.20
2022-09-26T08:54:53.165Z,92.70
2022-09-26T08:57:40.505Z,94.30
2022-09-26T09:00:19.110Z,94.90
2022-09-26T09:02:55.715Z,95.40
2022-09-26T09:05:24.377Z,95.50
2022-09-26T09:07:53.211Z,96.40
2022-09-26T09:10:24.830Z,95.10
2022-09-26T09:12:57.629Z,93.60
2022-09-26T09:15:33.378Z,93.00
2022-09-26T09:18:18.270Z,94.80
2022-09-26T09:20:55.670Z,92.10
2022-09-26T09:23:43.930Z,92.10
2022-09-26T09:29:18.703Z,91.90
2022-09-26T09:31:46.494Z,92.70
2022-09-26T09:34:17.448Z,94.60
2022-09-26T09:36:46.366Z,95.10
2022-09-26T09:39:18.554Z,95.30
2022-09-26T09:41:54.967Z,95.40
2022-09-26T09:44:27.475Z,96.80
2022-09-26T09:46:54.117Z,95.80
2022-09-26T09:49:22.267Z,96.40
2022-09-26T09:52:07.440Z,95.20
2022-09-26T09:54:46.205Z,94.40
2022-09-26T09:57:15.545Z,94.20
2022-09-26T09:59:52.737Z,94.30
2022-09-26T10:02:32.056Z,93.90
2022-09-26T10:05:28.511Z,93.00
2022-09-26T10:07:59.052Z,90.20
2022-09-26T10:10:33.240Z,87.00
2022-09-26T10:13:00.935Z,85.00
2022-09-26T10:15:27.636Z,82.90
2022-09-26T10:18:24.145Z,83.10
2022-09-26T10:20:54.113Z,84.70
2022-09-26T10:23:23.731Z,89.00
2022-09-26T10:25:51.768Z,90.30
2022-09-26T10:28:24.563Z,91.70
2022-09-26T10:30:53.521Z,92.50
2022-09-26T10:33:25.193Z,93.70
2022-09-26T10:35:58.777Z,96.40
2022-09-26T10:38:29.358Z,98.30
2022-09-26T10:40:59.618Z,98.50
2022-09-26T10:43:30.729Z,98.50
2022-09-26T10:46:00.285Z,99.10
2022-09-26T10:48:33.195Z,99.50
2022-09-26T10:51:01.838Z,99.30
2022-09-26T10:53:32.792Z,99.80
2022-09-26T10:56:01.468Z,99.90
2022-09-26T10:58:29.800Z,99.90
2022-09-26T11:01:00.148Z,99.90
2022-09-26T11:03:38.521Z,99.90
2022-09-26T11:06:05.279Z,99.90
2022-09-26T11:08:33.680Z,99.90
2022-09-26T11:11:01.790Z,99.90
2022-09-26T11:13:32.169Z,99.90
2022-09-26T11:16:01.845Z,99.90
2022-09-26T11:18:33.205Z,99.10
2022-09-26T11:21:23.111Z,99.40
2022-09-26T11:24:03.097Z,98.50
2022-09-26T11:26:43.609Z,99.20
2022-09-26T11:29:19.081Z,98.40
2022-09-26T11:31:46.002Z,96.80
2022-09-26T11:34:15.182Z,95.60
2022-09-26T11:36:46.897Z,94.20
2022-09-26T11:39:23.093Z,92.80
2022-09-26T11:42:04.043Z,93.90
2022-09-26T11:44:38.686Z,93.10
2022-09-26T11:47:08.272Z,93.70
2022-09-26T11:49:44.703Z,94.60
2022-09-26T11:52:32.412Z,92.80
2022-09-26T11:55:08.151Z,93.30
2022-09-26T11:57:43.133Z,93.30
2022-09-26T12:00:24.542Z,92.60
2022-09-26T12:03:09.377Z,92.40
2022-09-26T12:06:08.844Z,93.70
2022-09-26T12:08:47.184Z,94.50
2022-09-26T12:11:34.020Z,93.50
2022-09-26T12:14:19.226Z,93.90
2022-09-26T12:16:58.737Z,94.50
2022-09-26T12:19:34.130Z,96.20
2022-09-26T12:22:30.905Z,95.60
2022-09-26T12:25:00.289Z,94.40
2022-09-26T12:27:30.009Z,93.80
2022-09-26T12:30:03.253Z,93.70
2022-09-26T12:32:41.633Z,94.10
2022-09-26T12:35:08.268Z,91.20
2022-09-26T12:37:44.019Z,92.40
2022-09-26T12:40:10.767Z,91.30
2022-09-26T12:42:52.971Z,90.80
2022-09-26T12:45:42.192Z,91.10
2022-09-26T12:48:20.870Z,90.00
2022-09-26T12:51:06.338Z,90.50
2022-09-26T12:53:41.939Z,91.90
2022-09-26T12:56:09.496Z,91.80
2022-09-26T12:58:45.339Z,92.20
2022-09-26T13:01:24.785Z,92.50
2022-09-26T13:04:10.309Z,91.80
2022-09-26T13:07:14.838Z,92.30
2022-09-26T13:10:01.064Z,93.00
2022-09-26T13:12:46.142Z,93.40
2022-09-26T13:15:25.113Z,94.10
2022-09-26T13:17:54.601Z,94.70
2022-09-26T13:20:21.517Z,94.20
2022-09-26T13:23:02.218Z,92.00
2022-09-26T13:25:35.693Z,90.90
2022-09-26T13:28:09.248Z,87.00
2022-09-26T13:30:37.844Z,82.40
2022-09-26T13:33:30.608Z,79.60
2022-09-26T13:35:58.076Z,78.50
2022-09-26T13:38:28.042Z,78.30
2022-09-26T13:41:05.832Z,76.70
2022-09-26T13:43:51.885Z,73.30
2022-09-26T13:46:34.593Z,74.20
2022-09-26T13:49:07.475Z,71.10
2022-09-26T13:51:48.487Z,67.00
2022-09-26T13:54:16.811Z,68.60
2022-09-26T13:56:48.460Z,68.60
2022-09-26T13:59:15.661Z,67.60
2022-09-26T14:02:00.934Z,70.50
2022-09-26T14:04:37.149Z,68.30
2022-09-26T14:07:31.221Z,70.10
2022-09-26T14:10:00.833Z,69.40
2022-09-26T14:12:33.565Z,70.50
2022-09-26T14:15:14.033Z,73.10
2022-09-26T14:17:43.731Z,73.10
2022-09-26T14:20:16.104Z,73.80
2022-09-26T14:22:52.695Z,72.70
2022-09-26T14:25:38.126Z,72.40
2022-09-26T14:28:21.125Z,75.00
2022-09-26T14:31:06.338Z,76.60
2022-09-26T14:33:33.224Z,70.80
2022-09-26T14:36:38.380Z,72.90
2022-09-26T14:39:05.283Z,72.80
2022-09-26T14:41:33.539Z,76.80
2022-09-26T14:44:04.516Z,73.20
2022-09-26T14:46:33.213Z,72.90
2022-09-26T14:49:02.359Z,73.90
2022-09-26T14:51:31.315Z,70.70
2022-09-26T14:54:00.501Z,71.20
2022-09-26T14:56:29.872Z,76.20
2022-09-26T14:59:15.534Z,73.50
2022-09-26T15:01:43.296Z,72.90
2022-09-26T15:04:15.612Z,75.20
2022-09-26T15:06:43.513Z,77.00
2022-09-26T15:09:11.430Z,74.60
2022-09-26T15:11:44.069Z,75.40
2022-09-26T15:14:14.969Z,74.30
2022-09-26T15:16:47.732Z,74.80
2022-09-26T15:19:20.884Z,74.20
2022-09-26T15:22:13.845Z,74.30
2022-09-26T15:24:40.551Z,76.10
2022-09-26T15:27:09.081Z,76.20
2022-09-26T15:29:36.421Z,79.60
2022-09-26T15:32:03.087Z,78.00
2022-09-26T15:34:37.050Z,82.60
2022-09-26T15:37:09.317Z,79.50
2022-09-26T15:39:38.180Z,81.10
2022-09-26T15:42:29.251Z,78.50
2022-09-26T15:44:59.840Z,79.40
2022-09-26T15:47:39.174Z,82.60
2022-09-26T15:50:10.702Z,80.60
2022-09-26T15:52:40.137Z,79.90
2022-09-26T15:55:07.169Z,81.90
2022-09-26T15:57:33.936Z,81.00
2022-09-26T16:00:01.394Z,81.00
2022-09-26T16:02:32.553Z,81.80
2022-09-26T16:04:59.733Z,82.60
2022-09-26T16:07:27.888Z,82.20
2022-09-26T16:09:56.038Z,81.50
2022-09-26T16:12:23.713Z,84.20
2022-09-26T16:14:51.774Z,84.30
2022-09-26T16:17:49.125Z,84.70
2022-09-26T16:20:16.399Z,85.70
2022-09-26T16:22:51.672Z,88.70
2022-09-26T16:25:18.613Z,90.00
2022-09-26T16:27:50.089Z,90.90
2022-09-26T16:30:25.607Z,89.80
2022-09-26T16:33:12.493Z,89.90
2022-09-26T16:35:46.544Z,91.30
2022-09-26T16:38:16.239Z,90.70
2022-09-26T16:40:49.032Z,92.00
2022-09-26T16:43:19.056Z,92.30
2022-09-26T16:45:48.381Z,92.70
2022-09-26T16:48:33.811Z,92.90
2022-09-26T16:51:14.350Z,92.60
2022-09-26T16:53:45.726Z,93.70
2022-09-26T16:56:13.405Z,94.10
2022-09-26T16:58:50.553Z,94.50
2022-09-26T17:01:36.181Z,94.70
2022-09-26T17:04:03.460Z,94.70
2022-09-26T17:06:31.173Z,94.90
2022-09-26T17:09:01.338Z,95.20
2022-09-26T17:11:28.369Z,95.60
2022-09-26T17:13:54.958Z,96.20
2022-09-26T17:16:22.017Z,96.60
2022-09-26T17:18:48.761Z,97.10
2022-09-26T17:21:16.236Z,97.70
2022-09-26T17:23:43.304Z,98.20
2022-09-26T17:26:20.346Z,99.00
2022-09-26T17:28:47.687Z,99.20
2022-09-26T17:31:19.605Z,99.80
2022-09-26T17:33:47.576Z,99.90
2022-09-26T17:36:19.753Z,99.90
2022-09-26T17:38:46.604Z,99.90
2022-09-26T17:41:13.205Z,99.90
2022-09-26T17:43:39.973Z,99.90
2022-09-26T17:46:15.230Z,99.50
2022-09-26T17:48:43.505Z,98.80
2022-09-26T17:51:13.779Z,99.80
2022-09-26T17:53:46.146Z,98.80
2022-09-26T17:56:15.529Z,97.80
2022-09-26T17:58:44.114Z,97.60
2022-09-26T18:01:15.846Z,97.70
2022-09-26T18:03:42.473Z,97.00
2022-09-26T18:06:09.977Z,97.30
2022-09-26T18:08:37.456Z,97.10
2022-09-26T18:11:05.496Z,96.30
2022-09-26T18:13:34.714Z,96.00
2022-09-26T18:16:01.588Z,95.70
2022-09-26T18:18:29.049Z,96.00
2022-09-26T18:20:57.261Z,96.50
2022-09-26T18:23:29.177Z,96.80
2022-09-26T18:25:56.945Z,95.90
2022-09-26T18:28:23.708Z,95.70
2022-09-26T18:30:56.872Z,96.90
2022-09-26T18:33:25.548Z,97.80
2022-09-26T18:35:53.192Z,97.30
2022-09-26T18:38:19.792Z,96.00
2022-09-26T18:40:50.362Z,95.60
2022-09-26T18:43:21.461Z,95.50
2022-09-26T18:45:48.523Z,95.40
2022-09-26T18:48:22.468Z,95.50
2022-09-26T18:50:49.264Z,96.30
2022-09-26T18:53:17.159Z,96.50
2022-09-26T18:56:02.615Z,96.50
2022-09-26T18:58:32.260Z,96.70
2022-09-26T19:01:00.897Z,96.30
2022-09-26T19:03:29.052Z,95.80
2022-09-26T19:06:16.267Z,95.80
2022-09-26T19:08:44.012Z,97.10
2022-09-26T19:11:13.596Z,96.00
2022-09-26T19:13:40.847Z,96.10
2022-09-26T19:16:07.829Z,97.00
2022-09-26T19:18:34.729Z,97.30
2022-09-26T19:21:03.089Z,97.40
2022-09-26T19:23:31.242Z,97.50
2022-09-26T19:25:57.875Z,97.70
2022-09-26T19:28:26.411Z,97.10
2022-09-26T19:30:53.063Z,97.80
2022-09-26T19:33:19.693Z,98.90
2022-09-26T19:35:47.456Z,97.90
2022-09-26T19:38:19.156Z,98.30
2022-09-26T19:40:48.855Z,98.60
2022-09-26T19:43:16.751Z,99.80
2022-09-26T19:45:44.034Z,99.50
2022-09-26T19:48:15.470Z,99.60
2022-09-26T19:50:43.401Z,99.50
2022-09-26T19:53:13.365Z,99.90
2022-09-26T19:55:39.932Z,99.90
2022-09-26T19:58:17.266Z,99.90
2022-09-26T20:00:44.705Z,99.60
2022-09-26T20:03:18.689Z,99.30
2022-09-26T20:05:46.321Z,99.30
2022-09-26T20:08:16.882Z,99.90
2022-09-26T20:10:43.885Z,99.80
2022-09-26T20:13:10.677Z,99.90
2022-09-26T20:15:37.625Z,99.90
2022-09-26T20:18:05.532Z,99.90
2022-09-26T20:20:32.395Z,99.90
2022-09-26T20:22:59.203Z,99.40
2022-09-26T20:25:27.510Z,99.90
2022-09-26T20:27:54.440Z,99.50
2022-09-26T20:30:39.889Z,99.70
2022-09-26T20:33:06.830Z,99.40
2022-09-26T20:35:36.708Z,98.50
2022-09-26T20:38:07.213Z,98.50
2022-09-26T20:40:34.703Z,99.20
2022-09-26T20:43:07.776Z,98.30
2022-09-26T20:45:39.326Z,98.30
2022-09-26T20:48:14.293Z,98.60
2022-09-26T20:50:40.880Z,98.70
2022-09-26T20:53:25.565Z,97.90
2022-09-26T20:55:53.617Z,97.50
2022-09-26T20:58:20.268Z,98.50
2022-09-26T21:00:47.202Z,98.50
2022-09-26T21:03:15.914Z,98.60
2022-09-26T21:05:42.962Z,98.80
2022-09-26T21:08:30.686Z,98.10
2022-09-26T21:10:57.849Z,98.30
2022-09-26T21:13:24.473Z,98.20
2022-09-26T21:15:51.600Z,99.10
2022-09-26T21:18:26.220Z,99.30
2022-09-26T21:20:53.820Z,98.50
2022-09-26T21:23:20.611Z,99.20
2022-09-26T21:25:47.288Z,99.50
2022-09-26T21:28:26.458Z,99.70
2022-09-26T21:31:03.775Z,99.50
2022-09-26T21:33:30.562Z,99.90
2022-09-26T21:35:57.587Z,99.90
2022-09-26T21:38:25.122Z,99.90
2022-09-26T21:40:57.280Z,99.90
2022-09-26T21:43:26.806Z,99.90
2022-09-26T21:45:53.537Z,99.90
2022-09-26T21:48:20.343Z,99.90
2022-09-26T21:50:48.726Z,99.90
2022-09-26T21:53:19.978Z,99.90
2022-09-26T21:55:49.015Z,99.90
2022-09-26T21:58:19.554Z,99.90
2022-09-26T22:00:46.270Z,99.90
2022-09-26T22:03:12.842Z,99.90
2022-09-26T22:05:39.522Z,99.90
2022-09-26T22:08:06.131Z,99.90
2022-09-26T22:10:32.762Z,99.90
2022-09-26T22:12:59.407Z,99.90
2022-09-26T22:15:26.001Z,99.90
2022-09-26T22:17:53.158Z,99.90
2022-09-26T22:20:19.937Z,99.90
2022-09-26T22:22:46.544Z,99.90
2022-09-26T22:25:13.252Z,99.90
2022-09-26T22:27:40.174Z,99.90
2022-09-26T22:30:09.254Z,99.90
2022-09-26T22:32:35.838Z,99.90
2022-09-26T22:35:02.583Z,99.90
2022-09-26T22:37:29.296Z,99.90
2022-09-26T22:39:56.005Z,99.90
2022-09-26T22:42:22.697Z,99.90
2022-09-26T22:44:49.351Z,99.90
2022-09-26T22:47:15.973Z,99.90
2022-09-26T22:49:42.585Z,99.90
2022-09-26T22:52:09.206Z,99.90
2022-09-26T22:54:35.950Z,99.90
2022-09-26T22:57:02.743Z,99.90
2022-09-26T22:59:29.342Z,99.90
2022-09-26T23:01:56.669Z,99.90
2022-09-26T23:04:23.221Z,99.90
2022-09-26T23:06:49.783Z,99.90
2022-09-26T23:09:16.451Z,99.90
2022-09-26T23:11:43.175Z,99.90
2022-09-26T23:14:09.717Z,99.90
2022-09-26T23:16:36.438Z,99.90
2022-09-26T23:19:03.261Z,99.90
2022-09-26T23:21:30.093Z,99.90
2022-09-26T23:23:58.235Z,99.90
2022-09-26T23:26:24.846Z,99.90
2022-09-26T23:28:51.660Z,99.90
2022-09-26T23:31:18.437Z,99.90
2022-09-26T23:33:45.069Z,99.90
2022-09-26T23:36:11.943Z,99.90
2022-09-26T23:38:39.333Z,99.90
2022-09-26T23:41:06.771Z,99.90
2022-09-26T23:43:33.457Z,99.90
2022-09-26T23:46:00.197Z,99.90
2022-09-26T23:48:26.808Z,99.90
2022-09-26T23:50:53.530Z,99.90
2022-09-26T23:53:20.205Z,99.90
2022-09-26T23:55:46.842Z,99.90
2022-09-26T23:58:13.832Z,99.90
